Time;durP1;ratioP1;P1;durP2;ratioP2;P2;SDS_P1;SDS_P2;PMS_P1;PMS_P2;Temp;Humidity;BMP_temperature;BMP_pressure;BME280_temperature;BME280_humidity;BME280_pressure;Samples;Min_cycle;Max_cycle;Signal;HPM_P1;HPM_P2
2023/08/28 00:01:58;;;;;;;9.48;3.67;;;;;;;;;;5005913;28;20470;-51
2023/08/28 00:04:52;;;;;;;3.88;1.80;;;;;;;;;;5006112;28;20041;-53
2023/08/28 00:07:39;;;;;;;6.13;3.53;;;;;;;;;;5002477;28;20109;-59
2023/08/28 00:10:36;;;;;;;8.65;3.63;;;;;;;;;;5000384;28;20618;-60
2023/08/28 00:13:29;;;;;;;8.48;3.55;;;;;;;;;;5003550;28;20498;-60
2023/08/28 00:16:16;;;;;;;7.05;3.58;;;;;;;;;;5005188;28;20054;-60
2023/08/28 00:19:10;;;;;;;9.65;3.10;;;;;;;;;;5002037;28;20049;-58
2023/08/28 00:21:57;;;;;;;5.47;3.33;;;;;;;;;;5001345;28;20042;-58
2023/08/28 00:24:51;;;;;;;7.78;3.55;;;;;;;;;;5004377;28;20054;-58
2023/08/28 00:27:38;;;;;;;11.85;3.95;;;;;;;;;;5004566;28;21584;-57
2023/08/28 00:30:32;;;;;;;8.40;3.58;;;;;;;;;;5003524;28;20553;-58
2023/08/28 00:33:19;;;;;;;4.85;3.13;;;;;;;;;;5002908;28;20081;-58
2023/08/28 00:36:13;;;;;;;6.85;3.25;;;;;;;;;;5006113;28;20116;-51
2023/08/28 00:39:00;;;;;;;9.13;3.53;;;;;;;;;;5005806;28;20058;-48
2023/08/28 00:41:54;;;;;;;7.43;3.58;;;;;;;;;;5004263;28;20098;-49
2023/08/28 00:44:41;;;;;;;8.02;3.90;;;;;;;;;;5004541;28;20112;-46
2023/08/28 00:47:45;;;;;;;4.47;3.33;;;;;;;;;;4996550;28;20081;-59
2023/08/28 00:50:37;;;;;;;9.82;3.85;;;;;;;;;;4985318;28;20565;-59
2023/08/28 00:53:30;;;;;;;7.10;3.50;;;;;;;;;;4983976;28;20050;-59
2023/08/28 00:56:17;;;;;;;8.63;4.28;;;;;;;;;;4983324;28;20114;-59
2023/08/28 00:59:11;;;;;;;8.02;3.50;;;;;;;;;;4981128;28;20054;-59
2023/08/28 01:01:58;;;;;;;11.27;3.83;;;;;;;;;;4984820;28;20513;-59
2023/08/28 01:04:53;;;;;;;11.77;3.78;;;;;;;;;;4982424;28;20038;-64
2023/08/28 01:07:48;;;;;;;11.98;3.65;;;;;;;;;;4981371;28;20509;-64
2023/08/28 01:10:46;;;;;;;8.65;3.83;;;;;;;;;;4980178;28;20046;-64
2023/08/28 01:13:40;;;;;;;8.57;3.70;;;;;;;;;;4985499;28;20050;-64
2023/08/28 01:16:36;;;;;;;6.18;3.90;;;;;;;;;;4984119;28;20046;-59
2023/08/28 01:19:29;;;;;;;7.25;3.78;;;;;;;;;;4979030;28;20514;-51
2023/08/28 01:22:26;;;;;;;13.05;4.82;;;;;;;;;;4976178;28;20059;-47
2023/08/28 01:25:14;;;;;;;10.32;4.13;;;;;;;;;;4974091;28;20046;-50
2023/08/28 01:28:09;;;;;;;13.48;4.75;;;;;;;;;;4977302;28;20131;-52
2023/08/28 01:30:56;;;;;;;8.13;4.00;;;;;;;;;;4979719;28;20042;-51
2023/08/28 01:33:53;;;;;;;9.05;4.75;;;;;;;;;;4976441;28;20526;-63
2023/08/28 01:36:51;;;;;;;9.57;4.60;;;;;;;;;;4980632;28;21185;-64
2023/08/28 01:39:47;;;;;;;13.95;5.65;;;;;;;;;;4978418;28;20054;-64
2023/08/28 07:46:45;;;;;;;5.47;2.38;;;;;;;;;;5004581;28;20065;-59
2023/08/28 07:49:19;;;;;;;4.25;2.28;;;;;;;;;;5006870;28;20054;-59
2023/08/28 07:51:46;;;;;;;3.60;1.83;;;;;;;;;;5003690;28;20144;-59
2023/08/28 07:54:20;;;;;;;2.40;1.80;;;;;;;;;;5005292;28;20572;-60
2023/08/28 07:56:48;;;;;;;2.28;1.83;;;;;;;;;;5006539;28;20045;-51
2023/08/28 07:59:15;;;;;;;5.00;1.98;;;;;;;;;;5003102;28;20101;-51
2023/08/28 08:01:48;;;;;;;4.68;1.85;;;;;;;;;;5004213;28;20045;-51
2023/08/28 08:04:16;;;;;;;1.90;1.52;;;;;;;;;;5008717;28;20061;-50
2023/08/28 08:06:49;;;;;;;4.82;1.90;;;;;;;;;;5004573;28;20061;-53
2023/08/28 08:09:17;;;;;;;3.22;1.73;;;;;;;;;;5005509;28;20050;-49
2023/08/28 08:11:44;;;;;;;;;;;;;;;;;;5004528;28;20147;-60
2023/08/28 08:14:17;;;;;;;2.78;1.85;;;;;;;;;;5006129;28;20357;-60
2023/08/28 08:16:44;;;;;;;5.85;1.90;;;;;;;;;;5003416;28;20125;-60
2023/08/28 08:19:18;;;;;;;5.57;1.63;;;;;;;;;;5002877;28;20062;-60
2023/08/28 08:21:45;;;;;;;3.05;2.10;;;;;;;;;;5007249;28;20060;-59
2023/08/28 08:24:13;;;;;;;7.93;1.70;;;;;;;;;;5005918;28;20054;-60
2023/08/28 08:26:46;;;;;;;2.05;1.80;;;;;;;;;;5004205;28;20049;-46
2023/08/28 08:29:13;;;;;;;2.38;1.80;;;;;;;;;;5004964;28;20112;-51
2023/08/28 08:31:41;;;;;;;2.97;1.80;;;;;;;;;;5006587;28;20066;-49
2023/08/28 08:34:14;;;;;;;2.53;1.80;;;;;;;;;;5004031;28;20069;-49
2023/08/28 08:36:41;;;;;;;2.50;1.80;;;;;;;;;;5004975;28;20546;-48
2023/08/28 08:39:15;;;;;;;3.75;2.00;;;;;;;;;;5004431;28;20513;-48
2023/08/28 08:42:03;;;;;;;3.38;1.58;;;;;;;;;;5001380;28;20065;-54
2023/08/28 08:44:56;;;;;;;3.00;1.60;;;;;;;;;;5004939;28;20531;-53
2023/08/28 08:47:52;;;;;;;2.50;1.67;;;;;;;;;;5004412;28;20060;-51
2023/08/28 08:50:47;;;;;;;5.13;1.75;;;;;;;;;;5005807;28;20112;-62
2023/08/28 08:53:59;;;;;;;3.60;1.50;;;;;;;;;;5004817;28;20394;-60
2023/08/28 08:56:48;;;;;;;3.33;1.60;;;;;;;;;;5005251;28;20118;-60
2023/08/28 08:59:42;;;;;;;4.15;1.60;;;;;;;;;;5003671;28;20544;-60
2023/08/28 09:02:30;;;;;;;3.72;1.25;;;;;;;;;;5006587;28;21761;-60
2023/08/28 09:05:23;;;;;;;2.53;1.38;;;;;;;;;;5003158;28;20092;-60
2023/08/28 09:08:13;;;;;;;1.95;1.20;;;;;;;;;;5004682;28;20269;-52
2023/08/28 09:11:08;;;;;;;3.05;1.67;;;;;;;;;;5006925;28;20045;-49
2023/08/28 09:13:53;;;;;;;4.75;1.45;;;;;;;;;;5001580;28;20097;-52
2023/08/28 09:16:47;;;;;;;2.38;1.40;;;;;;;;;;5005692;28;20092;-50
2023/08/28 09:19:35;;;;;;;2.10;1.50;;;;;;;;;;5004913;28;20050;-52
2023/08/28 09:22:29;;;;;;;1.73;1.02;;;;;;;;;;5004165;28;20413;-49
2023/08/28 09:25:33;;;;;;;14.15;2.42;;;;;;;;;;5002622;28;20631;-49
2023/08/28 09:28:27;;;;;;;14.98;2.92;;;;;;;;;;5006356;28;20081;-48
2023/08/28 09:31:26;;;;;;;5.03;1.67;;;;;;;;;;4997775;28;20060;-50
2023/08/28 09:34:21;;;;;;;2.53;1.60;;;;;;;;;;5004897;28;20770;-47
2023/08/28 09:37:09;;;;;;;2.63;1.60;;;;;;;;;;5008112;28;20493;-58
2023/08/28 09:40:02;;;;;;;5.05;1.75;;;;;;;;;;5003851;28;20497;-57
2023/08/28 09:42:49;;;;;;;1.95;1.52;;;;;;;;;;5002997;28;20049;-58
2023/08/28 09:46:05;;;;;;;4.35;1.77;;;;;;;;;;5003122;28;20055;-58
2023/08/28 09:48:59;;;;;;;3.08;1.50;;;;;;;;;;5000463;28;20062;-60
2023/08/28 09:51:53;;;;;;;4.45;1.92;;;;;;;;;;5000202;28;20053;-60
2023/08/28 09:54:44;;;;;;;4.35;1.60;;;;;;;;;;5002643;28;20107;-60
2023/08/28 09:57:37;;;;;;;4.78;1.77;;;;;;;;;;5005058;28;20065;-59
2023/08/28 10:00:24;;;;;;;3.38;1.70;;;;;;;;;;5001363;28;20058;-60
2023/08/28 10:03:18;;;;;;;4.38;1.70;;;;;;;;;;5001506;28;20055;-61
2023/08/28 10:06:12;;;;;;;10.65;2.10;;;;;;;;;;5000933;28;20769;-58
2023/08/28 10:09:08;;;;;;;4.20;1.83;;;;;;;;;;5000898;28;20525;-58
2023/08/28 10:11:56;;;;;;;7.97;2.20;;;;;;;;;;4999340;28;20564;-61
2023/08/28 10:14:50;;;;;;;4.25;2.08;;;;;;;;;;4998821;28;20498;-59
2023/08/28 10:17:44;;;;;;;3.83;1.60;;;;;;;;;;4998614;28;20603;-47
2023/08/28 10:20:31;;;;;;;4.25;1.80;;;;;;;;;;4999840;28;20050;-60
2023/08/28 10:23:26;;;;;;;2.90;1.70;;;;;;;;;;5000447;28;22070;-61
2023/08/28 10:26:13;;;;;;;5.50;1.87;;;;;;;;;;4997097;28;20054;-60
2023/08/28 10:29:08;;;;;;;3.80;1.88;;;;;;;;;;5001900;28;20053;-60
2023/08/28 10:31:56;;;;;;;2.70;1.77;;;;;;;;;;5001459;28;20385;-60
2023/08/28 10:34:52;;;;;;;3.13;1.70;;;;;;;;;;4999270;28;20144;-53
2023/08/28 10:37:40;;;;;;;2.13;1.08;;;;;;;;;;5004589;28;20050;-53
2023/08/28 10:40:34;;;;;;;1.35;1.05;;;;;;;;;;5000376;28;20476;-53
2023/08/28 10:43:23;;;;;;;4.80;1.50;;;;;;;;;;4999907;28;20053;-51
2023/08/28 10:46:27;;;;;;;2.35;1.27;;;;;;;;;;5002852;28;20558;-47
2023/08/28 10:49:10;;;;;;;2.00;1.50;;;;;;;;;;5003138;28;20064;-62
2023/08/28 10:52:05;;;;;;;1.58;1.08;;;;;;;;;;5004629;28;20116;-61
2023/08/28 10:54:55;;;;;;;2.08;1.13;;;;;;;;;;5004964;28;20943;-62
2023/08/28 10:57:53;;;;;;;1.77;1.20;;;;;;;;;;5004875;28;20052;-62
2023/08/28 11:00:40;;;;;;;1.35;1.25;;;;;;;;;;5002057;28;20057;-61
2023/08/28 11:03:52;;;;;;;1.48;1.13;;;;;;;;;;5003212;28;20053;-52
2023/08/28 11:06:44;;;;;;;3.20;1.40;;;;;;;;;;5000896;28;20049;-51
2023/08/28 11:09:38;;;;;;;3.00;1.40;;;;;;;;;;5003274;28;20050;-52
2023/08/28 11:12:25;;;;;;;1.63;1.30;;;;;;;;;;5008532;28;20080;-49
2023/08/28 11:15:28;;;;;;;2.10;1.10;;;;;;;;;;5008377;28;20061;-57
2023/08/28 11:18:19;;;;;;;2.67;1.10;;;;;;;;;;5008072;28;20058;-57
2023/08/28 11:21:15;;;;;;;1.83;1.10;;;;;;;;;;4998039;28;20061;-58
2023/08/28 11:24:02;;;;;;;2.40;1.08;;;;;;;;;;5002288;28;20564;-58
2023/08/28 11:26:55;;;;;;;1.30;1.00;;;;;;;;;;5003251;28;20053;-58
2023/08/28 11:29:42;;;;;;;4.63;1.60;;;;;;;;;;5004252;28;20053;-58
2023/08/28 11:32:37;;;;;;;2.22;1.13;;;;;;;;;;5002635;28;20064;-59
2023/08/28 11:35:26;;;;;;;2.53;1.20;;;;;;;;;;5005100;28;20527;-59
2023/08/28 11:38:18;;;;;;;1.60;0.93;;;;;;;;;;5003933;28;20053;-59
2023/08/28 11:41:08;;;;;;;5.03;1.33;;;;;;;;;;5009142;28;20128;-61
2023/08/28 11:43:59;;;;;;;4.30;1.35;;;;;;;;;;5006453;28;20259;-59
2023/08/28 11:46:53;;;;;;;2.30;1.35;;;;;;;;;;5002811;28;20046;-58
2023/08/28 11:49:47;;;;;;;3.92;1.80;;;;;;;;;;5004065;28;20049;-57
2023/08/28 11:52:35;;;;;;;4.10;1.30;;;;;;;;;;5003411;28;20089;-56
2023/08/28 11:55:33;;;;;;;2.38;1.38;;;;;;;;;;5002872;28;20641;-57
2023/08/28 11:58:17;;;;;;;13.05;2.05;;;;;;;;;;5008954;28;20058;-57
2023/08/28 12:01:13;;;;;;;7.03;1.90;;;;;;;;;;5000449;28;20046;-61
2023/08/28 12:04:05;;;;;;;5.65;1.98;;;;;;;;;;5004248;28;20064;-61
2023/08/28 12:06:53;;;;;;;7.85;2.10;;;;;;;;;;5000523;28;20772;-61
2023/08/28 12:09:47;;;;;;;5.22;1.63;;;;;;;;;;5000896;28;20478;-62
2023/08/28 12:12:36;;;;;;;3.57;1.60;;;;;;;;;;5000041;28;20053;-50
2023/08/28 12:15:31;;;;;;;4.10;1.60;;;;;;;;;;5002864;28;20336;-53
2023/08/28 12:18:17;;;;;;;3.67;1.60;;;;;;;;;;5003701;28;20136;-53
2023/08/28 12:21:11;;;;;;;4.10;1.63;;;;;;;;;;5000846;28;20054;-51
2023/08/28 12:23:58;;;;;;;5.38;1.90;;;;;;;;;;4999371;28;20113;-49
2023/08/28 12:26:52;;;;;;;2.42;1.42;;;;;;;;;;5002374;28;20770;-53
2023/08/28 12:29:43;;;;;;;4.22;1.58;;;;;;;;;;5000387;28;20057;-63
2023/08/28 12:32:37;;;;;;;4.65;1.50;;;;;;;;;;4998871;28;20050;-64
2023/08/28 12:35:26;;;;;;;2.30;1.30;;;;;;;;;;5005143;28;20139;-64
2023/08/28 12:38:21;;;;;;;2.03;1.48;;;;;;;;;;5001396;28;20132;-61
2023/08/28 12:41:08;;;;;;;2.80;1.30;;;;;;;;;;5004555;28;20640;-61
2023/08/28 12:44:02;;;;;;;3.70;1.60;;;;;;;;;;5004495;28;20053;-61
2023/08/28 12:46:56;;;;;;;4.10;1.42;;;;;;;;;;5000380;28;20449;-61
2023/08/28 12:49:50;;;;;;;3.47;1.20;;;;;;;;;;5003701;28;20065;-61
2023/08/28 12:52:37;;;;;;;3.97;1.50;;;;;;;;;;5002752;28;20520;-61
2023/08/28 12:55:32;;;;;;;1.63;1.30;;;;;;;;;;4999658;28;20053;-60
2023/08/28 12:58:19;;;;;;;2.13;1.42;;;;;;;;;;5004064;28;20053;-60
2023/08/28 13:01:13;;;;;;;1.70;1.33;;;;;;;;;;5004720;28;20046;-61
2023/08/28 13:04:00;;;;;;;2.92;1.17;;;;;;;;;;5000056;28;20042;-61
2023/08/28 13:06:53;;;;;;;3.20;1.40;;;;;;;;;;5001763;28;20501;-52
2023/08/28 13:09:55;;;;;;;3.13;1.30;;;;;;;;;;5001314;28;20569;-60
2023/08/28 13:12:47;;;;;;;2.30;1.02;;;;;;;;;;5001372;28;20050;-60
2023/08/28 13:15:34;;;;;;;1.95;1.17;;;;;;;;;;4999806;28;20129;-60
2023/08/28 13:18:28;;;;;;;1.73;1.05;;;;;;;;;;4998334;28;20064;-60
2023/08/28 13:21:16;;;;;;;2.00;1.20;;;;;;;;;;4999805;28;20058;-61
2023/08/28 13:24:09;;;;;;;1.65;1.10;;;;;;;;;;5003475;28;20054;-59
2023/08/28 13:27:11;;;;;;;2.00;1.45;;;;;;;;;;4998941;28;20045;-58
2023/08/28 13:30:07;;;;;;;2.20;1.42;;;;;;;;;;5000066;28;20771;-59
2023/08/28 13:33:04;;;;;;;3.10;1.33;;;;;;;;;;4999012;28;20144;-59
2023/08/28 13:35:45;;;;;;;4.72;1.48;;;;;;;;;;4997306;28;20078;-58
2023/08/28 13:38:39;;;;;;;6.38;1.40;;;;;;;;;;4992888;28;20681;-59
2023/08/28 13:41:27;;;;;;;6.55;1.05;;;;;;;;;;5000879;28;20042;-59
2023/08/28 13:44:20;;;;;;;1.70;1.45;;;;;;;;;;5006198;28;20104;-58
2023/08/28 13:47:28;;;;;;;2.95;1.48;;;;;;;;;;5008031;28;20057;-59
2023/08/28 13:50:23;;;;;;;3.55;1.40;;;;;;;;;;5023194;28;20100;-59
2023/08/28 13:53:10;;;;;;;2.47;1.43;;;;;;;;;;5020086;28;20421;-59
2023/08/28 13:56:05;;;;;;;2.47;1.17;;;;;;;;;;5016501;28;20620;-61
2023/08/28 13:58:52;;;;;;;2.25;1.30;;;;;;;;;;5019414;28;20053;-60
2023/08/28 14:01:45;;;;;;;1.85;1.17;;;;;;;;;;5015295;28;20061;-60
2023/08/28 14:04:39;;;;;;;3.80;1.25;;;;;;;;;;5020399;28;20926;-59
2023/08/28 14:07:35;;;;;;;2.80;1.30;;;;;;;;;;5020649;28;20053;-64
2023/08/28 14:10:22;;;;;;;2.63;1.55;;;;;;;;;;5019688;28;20584;-64
2023/08/28 14:13:16;;;;;;;2.20;1.20;;;;;;;;;;5020252;28;20115;-64
2023/08/28 14:16:05;;;;;;;4.25;1.52;;;;;;;;;;5021721;28;20050;-64
2023/08/28 14:18:59;;;;;;;7.18;1.83;;;;;;;;;;5019213;28;20100;-63
2023/08/28 14:21:45;;;;;;;2.92;1.45;;;;;;;;;;5017835;28;20599;-49
2023/08/28 14:24:39;;;;;;;3.00;1.38;;;;;;;;;;5013545;28;20457;-52
2023/08/28 14:27:26;;;;;;;3.38;1.20;;;;;;;;;;5011355;28;20494;-50
2023/08/28 14:30:34;;;;;;;5.47;1.42;;;;;;;;;;4997893;28;20046;-50
2023/08/28 14:33:27;;;;;;;3.92;1.55;;;;;;;;;;5012218;28;20053;-59
2023/08/28 14:36:14;;;;;;;4.00;1.20;;;;;;;;;;5011688;28;20127;-65
2023/08/28 14:39:08;;;;;;;2.72;1.48;;;;;;;;;;5013850;28;20989;-65
2023/08/28 14:41:55;;;;;;;2.80;1.30;;;;;;;;;;5013222;28;20100;-65
2023/08/28 14:45:03;;;;;;;2.03;1.38;;;;;;;;;;5025238;28;20049;-66
2023/08/28 14:47:57;;;;;;;4.15;1.83;;;;;;;;;;5002081;28;20046;-65
2023/08/28 14:50:53;;;;;;;4.85;1.83;;;;;;;;;;5006915;28;20045;-59
2023/08/28 14:53:40;;;;;;;4.90;1.70;;;;;;;;;;5004499;28;20057;-59
2023/08/28 14:56:34;;;;;;;6.65;1.50;;;;;;;;;;5001326;28;20136;-59
2023/08/28 14:59:22;;;;;;;3.60;1.60;;;;;;;;;;4990133;28;20050;-59
2023/08/28 15:02:15;;;;;;;4.32;1.77;;;;;;;;;;4999189;28;20057;-66
2023/08/28 15:05:10;;;;;;;3.95;1.38;;;;;;;;;;5000821;28;20053;-61
2023/08/28 15:08:04;;;;;;;1.95;1.27;;;;;;;;;;5001014;28;20053;-61
2023/08/28 15:10:57;;;;;;;4.20;1.30;;;;;;;;;;5001265;28;20541;-61
2023/08/28 15:13:51;;;;;;;2.08;1.23;;;;;;;;;;5002684;28;20116;-61
2023/08/28 15:16:39;;;;;;;7.05;1.90;;;;;;;;;;5002100;28;20069;-60
2023/08/28 15:19:32;;;;;;;3.22;1.55;;;;;;;;;;5005156;28;20108;-59
2023/08/28 15:22:19;;;;;;;2.20;1.33;;;;;;;;;;5003256;28;20120;-59
2023/08/28 15:25:13;;;;;;;2.25;1.35;;;;;;;;;;5001500;28;20057;-59
2023/08/28 15:28:01;;;;;;;1.73;1.17;;;;;;;;;;4997235;28;20058;-59
2023/08/28 15:30:57;;;;;;;2.05;1.30;;;;;;;;;;5005728;28;20067;-65
2023/08/28 15:33:44;;;;;;;3.72;1.42;;;;;;;;;;5003971;28;20053;-65
2023/08/28 15:36:37;;;;;;;6.47;1.50;;;;;;;;;;4998026;28;20049;-66
2023/08/28 15:39:25;;;;;;;4.75;1.65;;;;;;;;;;4999917;28;20054;-67
2023/08/28 15:42:20;;;;;;;2.03;1.13;;;;;;;;;;5002576;28;20583;-64
2023/08/28 15:45:06;;;;;;;4.40;1.30;;;;;;;;;;5006177;28;20054;-66
2023/08/28 15:48:06;;;;;;;2.50;1.30;;;;;;;;;;5026928;28;20101;-64
2023/08/28 15:51:03;;;;;;;3.85;1.30;;;;;;;;;;5009005;28;20049;-64
2023/08/28 15:53:53;;;;;;;1.95;1.08;;;;;;;;;;5029120;28;20108;-65
2023/08/28 15:56:47;;;;;;;1.05;0.80;;;;;;;;;;5018299;28;20105;-60
2023/08/28 15:59:44;;;;;;;3.03;1.30;;;;;;;;;;5011954;28;20068;-49
2023/08/28 16:02:28;;;;;;;2.78;1.38;;;;;;;;;;5022187;28;20053;-59
2023/08/28 16:05:22;;;;;;;4.80;1.42;;;;;;;;;;5009586;28;20457;-59
2023/08/28 16:08:10;;;;;;;1.70;1.17;;;;;;;;;;5015075;28;20129;-59
2023/08/28 16:11:03;;;;;;;2.08;1.02;;;;;;;;;;5024500;28;20048;-59
2023/08/28 16:13:50;;;;;;;3.00;1.20;;;;;;;;;;5024379;28;20056;-59
2023/08/28 16:16:44;;;;;;;1.77;1.08;;;;;;;;;;5026790;28;20045;-59
2023/08/28 16:19:31;;;;;;;4.38;1.40;;;;;;;;;;5016286;28;20614;-58
2023/08/28 16:22:24;;;;;;;3.42;1.40;;;;;;;;;;5012557;28;20129;-58
2023/08/28 16:25:13;;;;;;;1.17;0.95;;;;;;;;;;5019724;28;20108;-54
2023/08/28 16:28:06;;;;;;;1.98;1.17;;;;;;;;;;5023705;28;20111;-67
2023/08/28 16:30:54;;;;;;;5.03;1.20;;;;;;;;;;5009823;28;20049;-67
2023/08/28 16:33:48;;;;;;;2.53;1.30;;;;;;;;;;5010669;28;20049;-67
2023/08/28 16:36:35;;;;;;;2.45;1.50;;;;;;;;;;5020303;28;21427;-67
2023/08/28 16:39:28;;;;;;;4.63;1.40;;;;;;;;;;5016505;28;20128;-67
2023/08/28 16:42:15;;;;;;;4.13;1.50;;;;;;;;;;5022913;28;20081;-67
2023/08/28 16:45:16;;;;;;;3.60;1.52;;;;;;;;;;5020591;28;20108;-54
2023/08/28 16:48:10;;;;;;;1.60;1.05;;;;;;;;;;5004905;28;20120;-53
2023/08/28 16:51:05;;;;;;;3.78;1.40;;;;;;;;;;5002729;28;20054;-56
2023/08/28 16:53:52;;;;;;;;;;;;;;;;;;5000326;28;20054;-61
2023/08/28 16:56:46;;;;;;;4.15;1.88;;;;;;;;;;5004638;28;20379;-65
2023/08/28 16:59:33;;;;;;;3.05;1.25;;;;;;;;;;4996739;28;20054;-59
2023/08/28 17:02:26;;;;;;;3.50;1.48;;;;;;;;;;4999340;28;20589;-60
2023/08/28 17:05:14;;;;;;;2.55;1.55;;;;;;;;;;5000517;28;20071;-59
2023/08/28 17:08:07;;;;;;;2.80;1.50;;;;;;;;;;5002197;28;20050;-60
2023/08/28 17:10:56;;;;;;;3.63;1.60;;;;;;;;;;5002519;28;20117;-60
2023/08/28 17:13:48;;;;;;;5.10;1.63;;;;;;;;;;4997697;28;20128;-65
2023/08/28 17:16:36;;;;;;;5.32;1.60;;;;;;;;;;5000844;28;20061;-65
2023/08/28 17:19:31;;;;;;;4.10;1.77;;;;;;;;;;4998965;28;20128;-65
2023/08/28 17:22:17;;;;;;;3.63;1.40;;;;;;;;;;4996333;28;20514;-53
2023/08/28 17:25:11;;;;;;;5.28;1.65;;;;;;;;;;4993592;28;20567;-67
2023/08/28 17:27:58;;;;;;;2.33;1.30;;;;;;;;;;4995010;28;20053;-53
2023/08/28 17:30:51;;;;;;;3.05;1.60;;;;;;;;;;4991059;28;20625;-54
2023/08/28 17:33:39;;;;;;;2.85;1.65;;;;;;;;;;4997868;28;20479;-55
2023/08/28 17:36:34;;;;;;;3.92;1.50;;;;;;;;;;4997573;28;20506;-54
2023/08/28 17:39:23;;;;;;;3.38;1.63;;;;;;;;;;4998966;28;20049;-53
2023/08/28 17:42:14;;;;;;;7.07;1.73;;;;;;;;;;4999261;28;20054;-58
2023/08/28 17:45:08;;;;;;;4.72;1.60;;;;;;;;;;5001639;28;20049;-59
2023/08/28 17:48:09;;;;;;;1.85;1.42;;;;;;;;;;5018634;28;20046;-59
2023/08/28 17:50:56;;;;;;;2.55;1.58;;;;;;;;;;5019274;28;20072;-66
2023/08/28 17:53:50;;;;;;;2.45;1.15;;;;;;;;;;5024400;28;20058;-51
2023/08/28 17:56:43;;;;;;;5.97;1.75;;;;;;;;;;5014408;28;20049;-51
2023/08/28 17:59:31;;;;;;;2.95;1.60;;;;;;;;;;5018474;28;20057;-49
2023/08/28 18:02:26;;;;;;;3.97;1.50;;;;;;;;;;5004532;28;20053;-48
2023/08/28 18:05:28;;;;;;;7.85;1.65;;;;;;;;;;5015900;28;20308;-51
2023/08/28 18:08:22;;;;;;;2.90;1.48;;;;;;;;;;5019955;28;20049;-51
2023/08/28 18:11:09;;;;;;;6.78;1.88;;;;;;;;;;5019024;28;20871;-58
2023/08/28 18:14:03;;;;;;;5.40;1.63;;;;;;;;;;5020817;28;20104;-58
2023/08/28 18:16:50;;;;;;;4.20;1.80;;;;;;;;;;5020967;28;20123;-58
2023/08/28 18:19:44;;;;;;;4.80;1.90;;;;;;;;;;5019751;28;20053;-58
2023/08/28 18:22:31;;;;;;;7.07;1.60;;;;;;;;;;5025478;28;20607;-58
2023/08/28 18:25:25;;;;;;;3.67;1.70;;;;;;;;;;5022992;28;20044;-58
2023/08/28 18:28:12;;;;;;;7.03;1.60;;;;;;;;;;5019568;28;20053;-58
2023/08/28 18:31:05;;;;;;;3.33;1.88;;;;;;;;;;5021566;28;20110;-58
2023/08/28 18:33:54;;;;;;;6.13;2.40;;;;;;;;;;5018507;28;20058;-58
2023/08/28 18:36:47;;;;;;;6.55;2.10;;;;;;;;;;5021785;28;20061;-58
2023/08/28 18:39:40;;;;;;;4.65;1.90;;;;;;;;;;5017166;28;20107;-66
2023/08/28 18:42:34;;;;;;;4.70;2.47;;;;;;;;;;5022595;28;20076;-66
2023/08/28 18:45:22;;;;;;;12.75;3.47;;;;;;;;;;5021775;28;20061;-65
2023/08/28 18:48:23;;;;;;;6.47;2.33;;;;;;;;;;5005047;28;20058;-54
2023/08/28 18:51:10;;;;;;;10.57;2.90;;;;;;;;;;5005799;28;20407;-48
2023/08/28 18:54:04;;;;;;;5.90;2.13;;;;;;;;;;5002186;28;20108;-53
2023/08/28 18:56:58;;;;;;;8.73;2.47;;;;;;;;;;5000193;28;20651;-50
2023/08/28 18:59:52;;;;;;;8.00;2.45;;;;;;;;;;4998115;28;20057;-51
2023/08/28 19:02:40;;;;;;;12.93;2.70;;;;;;;;;;5001943;28;20050;-48
2023/08/28 19:05:34;;;;;;;10.02;2.40;;;;;;;;;;5003261;28;20058;-49
2023/08/28 19:08:21;;;;;;;12.10;2.85;;;;;;;;;;5002345;28;20053;-67
2023/08/28 19:11:15;;;;;;;10.73;2.78;;;;;;;;;;5000115;28;20061;-67
2023/08/28 19:14:09;;;;;;;11.50;2.58;;;;;;;;;;5000276;28;20058;-69
2023/08/28 19:17:04;;;;;;;9.50;2.42;;;;;;;;;;4997814;28;20514;-50
2023/08/28 19:19:58;;;;;;;8.77;2.15;;;;;;;;;;4995188;28;20052;-58
2023/08/28 19:22:51;;;;;;;7.13;2.40;;;;;;;;;;4995411;28;20055;-58
2023/08/28 19:25:39;;;;;;;14.52;2.70;;;;;;;;;;4996360;28;20129;-58
2023/08/28 19:28:33;;;;;;;12.68;2.90;;;;;;;;;;5002086;28;20053;-58
2023/08/28 19:31:20;;;;;;;13.45;2.50;;;;;;;;;;4998955;28;20132;-58
2023/08/28 19:34:13;;;;;;;14.73;2.72;;;;;;;;;;4997479;28;20738;-58
2023/08/28 19:36:41;;;;;;;9.35;2.58;;;;;;;;;;5002402;28;20097;-66
2023/08/28 19:39:35;;;;;;;10.13;2.80;;;;;;;;;;4998525;28;20112;-51
2023/08/28 19:42:22;;;;;;;10.82;2.67;;;;;;;;;;4998938;28;20394;-48
2023/08/28 19:45:15;;;;;;;11.80;2.80;;;;;;;;;;5001283;28;20144;-47
2023/08/28 19:48:16;;;;;;;8.43;2.35;;;;;;;;;;5004577;28;20073;-47
2023/08/28 19:51:04;;;;;;;9.95;3.00;;;;;;;;;;5018906;28;20452;-49
2023/08/28 19:53:57;;;;;;;18.20;2.72;;;;;;;;;;5020405;28;20460;-59
2023/08/28 19:56:44;;;;;;;16.05;3.08;;;;;;;;;;5015745;28;20057;-59
2023/08/28 19:59:38;;;;;;;12.43;3.22;;;;;;;;;;5019520;28;20107;-59
2023/08/28 20:02:25;;;;;;;11.27;2.60;;;;;;;;;;5018616;28;20762;-59
2023/08/28 20:05:20;;;;;;;6.93;2.75;;;;;;;;;;5016342;28;20057;-69
2023/08/28 20:08:08;;;;;;;13.98;3.25;;;;;;;;;;5016160;28;20057;-58
2023/08/28 20:11:00;;;;;;;19.38;3.13;;;;;;;;;;5009280;28;20178;-57
2023/08/28 20:13:48;;;;;;;13.43;3.00;;;;;;;;;;5008377;28;20188;-58
2023/08/28 20:16:42;;;;;;;13.43;3.25;;;;;;;;;;5013538;28;20928;-58
2023/08/28 20:19:29;;;;;;;15.82;2.90;;;;;;;;;;5015970;28;20544;-58
2023/08/28 20:22:22;;;;;;;18.40;3.13;;;;;;;;;;5016383;28;20049;-66
2023/08/28 20:25:17;;;;;;;14.27;3.00;;;;;;;;;;5014996;28;20100;-66
2023/08/28 20:28:04;;;;;;;15.88;3.10;;;;;;;;;;5016739;28;20644;-66
2023/08/28 20:30:57;;;;;;;21.30;3.45;;;;;;;;;;5018907;28;20092;-66
2023/08/28 20:33:45;;;;;;;17.80;3.25;;;;;;;;;;5015209;28;20053;-59
2023/08/28 20:36:39;;;;;;;21.90;3.70;;;;;;;;;;5009524;28;20109;-59
2023/08/28 20:39:27;;;;;;;24.70;4.18;;;;;;;;;;5017513;28;20049;-59
2023/08/28 20:42:20;;;;;;;17.92;3.72;;;;;;;;;;5020044;28;21034;-59
2023/08/28 20:45:07;;;;;;;19.48;3.75;;;;;;;;;;5012257;28;20453;-59
2023/08/28 20:48:07;;;;;;;14.80;3.33;;;;;;;;;;4992533;28;20065;-59
2023/08/28 20:50:58;;;;;;;17.90;3.50;;;;;;;;;;5001594;28;20100;-61
2023/08/28 20:53:51;;;;;;;19.02;3.50;;;;;;;;;;4998752;28;20094;-59
2023/08/28 20:56:39;;;;;;;22.40;3.65;;;;;;;;;;5003235;28;20128;-59
2023/08/28 20:59:33;;;;;;;30.40;4.35;;;;;;;;;;5003187;28;20705;-59
2023/08/28 21:02:20;;;;;;;19.13;3.67;;;;;;;;;;5003899;28;20137;-69
2023/08/28 21:05:14;;;;;;;24.38;3.40;;;;;;;;;;4998533;28;20140;-53
2023/08/28 21:08:01;;;;;;;25.83;3.42;;;;;;;;;;5000680;28;20053;-51
2023/08/28 21:10:55;;;;;;;16.05;3.42;;;;;;;;;;5001458;28;20046;-53
2023/08/28 21:13:42;;;;;;;19.15;3.38;;;;;;;;;;4997994;28;20592;-55
2023/08/28 21:16:35;;;;;;;18.92;3.50;;;;;;;;;;5004506;28;20132;-54
2023/08/28 21:19:29;;;;;;;23.23;3.40;;;;;;;;;;4999634;28;20523;-57
2023/08/28 21:22:23;;;;;;;18.75;3.33;;;;;;;;;;5002018;28;20469;-58
2023/08/28 21:25:09;;;;;;;19.10;3.38;;;;;;;;;;5003372;28;20105;-59
2023/08/28 21:28:04;;;;;;;15.40;3.17;;;;;;;;;;5001161;28;20058;-58
2023/08/28 21:31:01;;;;;;;29.63;4.47;;;;;;;;;;5002419;28;20050;-66
2023/08/28 21:33:55;;;;;;;23.67;3.20;;;;;;;;;;5005082;28;20124;-59
2023/08/28 21:36:42;;;;;;;14.85;3.08;;;;;;;;;;5005042;28;20210;-58
2023/08/28 21:39:36;;;;;;;19.40;3.58;;;;;;;;;;5000414;28;20104;-58
2023/08/28 21:42:24;;;;;;;16.85;3.65;;;;;;;;;;5003239;28;22243;-59
2023/08/28 21:45:17;;;;;;;13.55;3.35;;;;;;;;;;5004304;28;20058;-58
2023/08/28 21:48:10;;;;;;;21.33;3.95;;;;;;;;;;5000549;28;20062;-66
2023/08/28 21:51:04;;;;;;;24.35;3.88;;;;;;;;;;4999778;28;20104;-67
2023/08/28 21:53:51;;;;;;;25.42;4.20;;;;;;;;;;4999245;28;20058;-67
2023/08/28 21:56:45;;;;;;;32.95;3.95;;;;;;;;;;5001838;28;20050;-69
2023/08/28 21:59:33;;;;;;;20.08;3.22;;;;;;;;;;4999638;28;20152;-69
2023/08/28 22:02:27;;;;;;;17.77;3.10;;;;;;;;;;4996487;28;20111;-53
2023/08/28 22:05:14;;;;;;;15.02;3.40;;;;;;;;;;4999709;28;20145;-53
2023/08/28 22:08:08;;;;;;;22.50;4.35;;;;;;;;;;5001062;28;20116;-53
2023/08/28 22:10:55;;;;;;;16.42;3.63;;;;;;;;;;5000621;28;20081;-53
2023/08/28 22:13:50;;;;;;;26.90;3.85;;;;;;;;;;4999207;28;20053;-53
2023/08/28 22:16:36;;;;;;;30.10;3.88;;;;;;;;;;4998422;28;20061;-49
2023/08/28 22:19:30;;;;;;;21.77;3.95;;;;;;;;;;4998430;28;20050;-51
2023/08/28 22:22:17;;;;;;;21.77;3.70;;;;;;;;;;4995026;28;20053;-51
2023/08/28 22:25:11;;;;;;;20.45;3.63;;;;;;;;;;5001018;28;20611;-59
2023/08/28 22:27:58;;;;;;;17.52;3.65;;;;;;;;;;5000233;28;20097;-59
2023/08/28 22:30:52;;;;;;;21.23;3.53;;;;;;;;;;5003074;28;20137;-58
2023/08/28 22:33:39;;;;;;;15.30;4.03;;;;;;;;;;4998998;28;20059;-58
2023/08/28 22:36:34;;;;;;;27.40;4.35;;;;;;;;;;4999548;28;20812;-58
2023/08/28 22:39:21;;;;;;;17.65;3.70;;;;;;;;;;4996881;28;20050;-58
2023/08/28 22:42:15;;;;;;;20.08;3.67;;;;;;;;;;5000156;28;20506;-58
2023/08/28 22:45:02;;;;;;;14.20;3.40;;;;;;;;;;5001716;28;20054;-68
2023/08/28 22:48:02;;;;;;;17.30;3.25;;;;;;;;;;4999654;28;20077;-69
2023/08/28 22:50:56;;;;;;;23.23;3.95;;;;;;;;;;5000977;28;20050;-69
2023/08/28 22:53:49;;;;;;;23.17;4.18;;;;;;;;;;4999007;28;20049;-58
2023/08/28 22:56:37;;;;;;;23.58;3.60;;;;;;;;;;5000085;28;20054;-69
2023/08/28 22:59:31;;;;;;;37.70;3.97;;;;;;;;;;5001162;28;20097;-52
2023/08/28 23:02:18;;;;;;;24.25;4.22;;;;;;;;;;4998773;28;20132;-51
2023/08/28 23:05:12;;;;;;;18.65;3.95;;;;;;;;;;5000239;28;20069;-52